Dades meteomassalio
Diari Summary for Febrer 14, 2018 Units:  Both    English   Metric
« Previous Day
Next Day »
Diari Semanal Mensual Anual Personalitzat
  Maxima: Minima: Mijana:
Temperatura: TemperatureC °F /  -17.8 °C 4.4 °F /  -15.3 °C 9.7 °F /  -12.4 °C
Rosada: DewpointC °F /  -17.8 °C 0.8 °F /  -17.3 °C 5.3 °F /  -14.8 °C
Humitat: Humidity % 60 % 74 %
Velocitat del vent: WindSpeedKMH mph /  0 km/h - 11.9 mph /  19.2 km/h
Racha vent: WindSpeedGustKMH mph /  0 km/h - -
Vent:- - WNW
Pressio: PressurehPa in /  0 hPa 1018.8 in /  34496.6 hPa -
Pluja: 0.3 in /  7.62 mm    
Historical Graphs
 
 
Tabular Data for Febrer 14, 2018
Time Temperature Dew Point Pressure Wind Wind Speed Wind Gust Humidity Rainfall Rate (Hourly) solar Conditions
TemperatureC °F /  -17.8 °C DewpointC °F /  -17.8 °C PressurehPa in /  0 hPa Calm     Humidity % HourlyPrecipMM in /  0 mm SolarRadiationWatts/m^2 W/m2 Conditions
00:03 6.1 °F /  -14.4 °C 2.2 °F /  -16.6 °C 1019.2 in /  34510.1 hPa NW 13.0 mph /  20.9 km/h 13.0 mph /  20.9 km/h 76 % 0.0 in /  0 mm 0.0 W/m2 CLR
00:08 6.1 °F /  -14.4 °C 2.2 °F /  -16.6 °C 1019.5 in /  34520.3 hPa NNW 16.7 mph /  26.9 km/h 16.7 mph /  26.9 km/h 76 % 0.0 in /  0 mm 0.0 W/m2 CLR
00:13 6.1 °F /  -14.4 °C 2.2 °F /  -16.6 °C 1019.5 in /  34520.3 hPa NNW 16.7 mph /  26.9 km/h 16.7 mph /  26.9 km/h 76 % 0.0 in /  0 mm 0.0 W/m2 CLR
00:18 6.1 °F /  -14.4 °C 2.4 °F /  -16.4 °C 1019.5 in /  34520.3 hPa NNW 16.7 mph /  26.9 km/h 16.7 mph /  26.9 km/h 77 % 0.0 in /  0 mm 0.0 W/m2 CLR
00:23 6.1 °F /  -14.4 °C 2.4 °F /  -16.4 °C 1019.5 in /  34520.3 hPa NNW 16.7 mph /  26.9 km/h 16.7 mph /  26.9 km/h 77 % 0.0 in /  0 mm 0.0 W/m2 CLR
00:28 5.6 °F /  -14.7 °C 1.8 °F /  -16.8 °C 1019.5 in /  34520.3 hPa NNW 11.1 mph /  17.9 km/h 11.1 mph /  17.9 km/h 77 % 0.0 in /  0 mm 0.0 W/m2 CLR
00:34 5.6 °F /  -14.7 °C 1.8 °F /  -16.8 °C 1019.5 in /  34520.3 hPa NNW 16.7 mph /  26.9 km/h 16.7 mph /  26.9 km/h 77 % 0.0 in /  0 mm 0.0 W/m2 CLR
00:39 5.6 °F /  -14.7 °C 1.8 °F /  -16.8 °C 1019.9 in /  34533.8 hPa NNW 16.7 mph /  26.9 km/h 16.7 mph /  26.9 km/h 77 % 0.0 in /  0 mm 0.0 W/m2 CLR
00:44 5.6 °F /  -14.7 °C 2.0 °F /  -16.7 °C 1019.5 in /  34520.3 hPa NNW 13.0 mph /  20.9 km/h 13.0 mph /  20.9 km/h 78 % 0.0 in /  0 mm 0.0 W/m2 CLR
00:49 5.0 °F /  -15 °C 1.3 °F /  -17.1 °C 1019.5 in /  34520.3 hPa NW 14.8 mph /  23.8 km/h 14.8 mph /  23.8 km/h 77 % 0.0 in /  0 mm 0.0 W/m2 CLR
00:54 5.0 °F /  -15 °C 1.3 °F /  -17.1 °C 1019.5 in /  34520.3 hPa NW 7.4 mph /  11.9 km/h 7.4 mph /  11.9 km/h 77 % 0.0 in /  0 mm 0.0 W/m2 CLR
00:59 5.0 °F /  -15 °C 1.5 °F /  -16.9 °C 1019.5 in /  34520.3 hPa WNW 11.1 mph /  17.9 km/h 11.1 mph /  17.9 km/h 78 % 0.0 in /  0 mm 0.0 W/m2 CLR
01:04 5.0 °F /  -15 °C 1.5 °F /  -16.9 °C 1019.5 in /  34520.3 hPa NW 13.0 mph /  20.9 km/h 13.0 mph /  20.9 km/h 78 % 0.0 in /  0 mm 0.0 W/m2 CLR
01:09 5.0 °F /  -15 °C 1.3 °F /  -17.1 °C 1019.5 in /  34520.3 hPa NW 16.7 mph /  26.9 km/h 16.7 mph /  26.9 km/h 77 % 0.0 in /  0 mm 0.0 W/m2 CLR
01:14 5.0 °F /  -15 °C 1.3 °F /  -17.1 °C 1019.5 in /  34520.3 hPa NW 14.8 mph /  23.8 km/h 14.8 mph /  23.8 km/h 77 % 0.0 in /  0 mm 0.0 W/m2 CLR
01:19 4.4 °F /  -15.3 °C 0.8 °F /  -17.3 °C 1019.5 in /  34520.3 hPa NW 13.0 mph /  20.9 km/h 13.0 mph /  20.9 km/h 77 % 0.0 in /  0 mm 0.0 W/m2 CLR
01:24 4.4 °F /  -15.3 °C 0.9 °F /  -17.3 °C 1019.5 in /  34520.3 hPa NW 11.1 mph /  17.9 km/h 11.1 mph /  17.9 km/h 78 % 0.0 in /  0 mm 0.0 W/m2 CLR
01:29 4.4 °F /  -15.3 °C 0.9 °F /  -17.3 °C 1019.5 in /  34520.3 hPa NW 12.9 mph /  20.8 km/h 12.9 mph /  20.8 km/h 78 % 0.0 in /  0 mm 0.0 W/m2 CLR
01:34 4.4 °F /  -15.3 °C 0.8 °F /  -17.3 °C 1019.9 in /  34533.8 hPa NW 14.8 mph /  23.8 km/h 14.8 mph /  23.8 km/h 77 % 0.0 in /  0 mm 0.0 W/m2 CLR
01:39 5.0 °F /  -15 °C 1.3 °F /  -17.1 °C 1019.9 in /  34533.8 hPa NW 14.8 mph /  23.8 km/h 14.8 mph /  23.8 km/h 77 % 0.0 in /  0 mm 0.0 W/m2 CLR
01:44 5.0 °F /  -15 °C 1.3 °F /  -17.1 °C 1019.9 in /  34533.8 hPa NW 13.0 mph /  20.9 km/h 13.0 mph /  20.9 km/h 77 % 0.0 in /  0 mm 0.0 W/m2 CLR
01:49 5.6 °F /  -14.7 °C 1.8 °F /  -16.8 °C 1019.9 in /  34533.8 hPa NW 13.0 mph /  20.9 km/h 13.0 mph /  20.9 km/h 77 % 0.0 in /  0 mm 0.0 W/m2 CLR
01:54 5.6 °F /  -14.7 °C 1.8 °F /  -16.8 °C 1019.5 in /  34520.3 hPa NW 11.3 mph /  18.2 km/h 11.3 mph /  18.2 km/h 77 % 0.0 in /  0 mm 0.0 W/m2 CLR
01:59 6.1 °F /  -14.4 °C 2.4 °F /  -16.4 °C 1019.5 in /  34520.3 hPa NW 11.3 mph /  18.2 km/h 11.3 mph /  18.2 km/h 77 % 0.0 in /  0 mm 0.0 W/m2 CLR
02:04 6.1 °F /  -14.4 °C 2.4 °F /  -16.4 °C 1019.5 in /  34520.3 hPa WNW 14.8 mph /  23.8 km/h 14.8 mph /  23.8 km/h 77 % 0.0 in /  0 mm 0.0 W/m2 CLR
02:09 6.1 °F /  -14.4 °C 2.4 °F /  -16.4 °C 1019.5 in /  34520.3 hPa WNW 13.0 mph /  20.9 km/h 13.0 mph /  20.9 km/h 77 % 0.0 in /  0 mm 0.0 W/m2 CLR
02:14 6.1 °F /  -14.4 °C 2.4 °F /  -16.4 °C 1019.5 in /  34520.3 hPa NW 13.0 mph /  20.9 km/h 13.0 mph /  20.9 km/h 77 % 0.0 in /  0 mm 0.0 W/m2 CLR
02:19 6.1 °F /  -14.4 °C 2.2 °F /  -16.6 °C 1019.5 in /  34520.3 hPa NW 11.1 mph /  17.9 km/h 11.1 mph /  17.9 km/h 76 % 0.0 in /  0 mm 0.0 W/m2 CLR
02:24 5.6 °F /  -14.7 °C 1.8 °F /  -16.8 °C 1019.5 in /  34520.3 hPa WNW 14.8 mph /  23.8 km/h 14.8 mph /  23.8 km/h 77 % 0.0 in /  0 mm 0.0 W/m2 CLR
02:29 5.6 °F /  -14.7 °C 1.7 °F /  -16.8 °C 1019.5 in /  34520.3 hPa NW 13.0 mph /  20.9 km/h 13.0 mph /  20.9 km/h 76 % 0.0 in /  0 mm 0.0 W/m2 CLR
02:34 5.6 °F /  -14.7 °C 1.8 °F /  -16.8 °C 1019.5 in /  34520.3 hPa NW 16.1 mph /  25.9 km/h 16.1 mph /  25.9 km/h 77 % 0.0 in /  0 mm 0.0 W/m2 CLR
02:39 6.1 °F /  -14.4 °C 2.4 °F /  -16.4 °C 1019.5 in /  34520.3 hPa NW 18.5 mph /  29.8 km/h 18.5 mph /  29.8 km/h 77 % 0.0 in /  0 mm 0.0 W/m2 CLR
02:44 6.1 °F /  -14.4 °C 2.4 °F /  -16.4 °C 1019.5 in /  34520.3 hPa NW 13.0 mph /  20.9 km/h 13.0 mph /  20.9 km/h 77 % 0.0 in /  0 mm 0.0 W/m2 CLR
02:49 6.1 °F /  -14.4 °C 2.4 °F /  -16.4 °C 1019.5 in /  34520.3 hPa NW 18.5 mph /  29.8 km/h 18.5 mph /  29.8 km/h 77 % 0.0 in /  0 mm 0.0 W/m2 CLR
02:54 6.1 °F /  -14.4 °C 2.4 °F /  -16.4 °C 1019.5 in /  34520.3 hPa NW 18.5 mph /  29.8 km/h 18.5 mph /  29.8 km/h 77 % 0.0 in /  0 mm 0.0 W/m2 CLR
02:59 6.1 °F /  -14.4 °C 2.4 °F /  -16.4 °C 1019.5 in /  34520.3 hPa NW 18.5 mph /  29.8 km/h 18.5 mph /  29.8 km/h 77 % 0.0 in /  0 mm 0.0 W/m2 CLR
03:04 6.7 °F /  -14.1 °C 2.9 °F /  -16.2 °C 1019.5 in /  34520.3 hPa NW 19.3 mph /  31.1 km/h 19.3 mph /  31.1 km/h 77 % 0.0 in /  0 mm 0.0 W/m2 CLR
03:09 6.7 °F /  -14.1 °C 2.9 °F /  -16.2 °C 1019.5 in /  34520.3 hPa NW 19.3 mph /  31.1 km/h 19.3 mph /  31.1 km/h 77 % 0.0 in /  0 mm 0.0 W/m2 CLR
03:14 6.7 °F /  -14.1 °C 2.7 °F /  -16.3 °C 1019.5 in /  34520.3 hPa WNW 20.9 mph /  33.6 km/h 20.9 mph /  33.6 km/h 76 % 0.0 in /  0 mm 0.0 W/m2 CLR
03:19 6.7 °F /  -14.1 °C 2.7 °F /  -16.3 °C 1019.5 in /  34520.3 hPa NW 18.5 mph /  29.8 km/h 18.5 mph /  29.8 km/h 76 % 0.0 in /  0 mm 0.0 W/m2 CLR
03:24 6.7 °F /  -14.1 °C 2.7 °F /  -16.3 °C 1019.5 in /  34520.3 hPa WNW 16.7 mph /  26.9 km/h 16.7 mph /  26.9 km/h 76 % 0.0 in /  0 mm 0.0 W/m2 CLR
03:29 6.7 °F /  -14.1 °C 2.7 °F /  -16.3 °C 1019.5 in /  34520.3 hPa NW 14.8 mph /  23.8 km/h 14.8 mph /  23.8 km/h 76 % 0.0 in /  0 mm 0.0 W/m2 CLR
03:34 6.7 °F /  -14.1 °C 2.7 °F /  -16.3 °C 1019.5 in /  34520.3 hPa NW 16.7 mph /  26.9 km/h 16.7 mph /  26.9 km/h 76 % 0.0 in /  0 mm 0.0 W/m2 CLR
03:39 6.7 °F /  -14.1 °C 2.7 °F /  -16.3 °C 1019.2 in /  34510.1 hPa WNW 18.5 mph /  29.8 km/h 18.5 mph /  29.8 km/h 76 % 0.0 in /  0 mm 0.0 W/m2 CLR
03:44 7.2 °F /  -13.8 °C 3.3 °F /  -15.9 °C 1019.2 in /  34510.1 hPa WNW 19.3 mph /  31.1 km/h 19.3 mph /  31.1 km/h 76 % 0.0 in /  0 mm 0.0 W/m2 CLR
03:49 7.2 °F /  -13.8 °C 3.3 °F /  -15.9 °C 1019.2 in /  34510.1 hPa NW 18.5 mph /  29.8 km/h 18.5 mph /  29.8 km/h 76 % 0.0 in /  0 mm 0.0 W/m2 CLR
03:54 7.2 °F /  -13.8 °C 3.1 °F /  -16.1 °C 1019.2 in /  34510.1 hPa NW 18.5 mph /  29.8 km/h 18.5 mph /  29.8 km/h 75 % 0.0 in /  0 mm 0.0 W/m2 CLR
03:59 7.8 °F /  -13.4 °C 3.8 °F /  -15.7 °C 1019.2 in /  34510.1 hPa NW 18.5 mph /  29.8 km/h 18.5 mph /  29.8 km/h 76 % 0.0 in /  0 mm 0.0 W/m2 CLR
04:04 7.8 °F /  -13.4 °C 3.8 °F /  -15.7 °C 1018.8 in /  34496.6 hPa NW 18.5 mph /  29.8 km/h 18.5 mph /  29.8 km/h 76 % 0.0 in /  0 mm 0.0 W/m2 CLR
04:09 7.2 °F /  -13.8 °C 3.3 °F /  -15.9 °C 1018.8 in /  34496.6 hPa NW 18.5 mph /  29.8 km/h 18.5 mph /  29.8 km/h 76 % 0.0 in /  0 mm 0.0 W/m2 CLR
04:14 7.2 °F /  -13.8 °C 3.4 °F /  -15.9 °C 1018.8 in /  34496.6 hPa NW 16.7 mph /  26.9 km/h 16.7 mph /  26.9 km/h 77 % 0.0 in /  0 mm 0.0 W/m2 CLR
04:19 7.2 °F /  -13.8 °C 3.3 °F /  -15.9 °C 1018.8 in /  34496.6 hPa NW 16.7 mph /  26.9 km/h 16.7 mph /  26.9 km/h 76 % 0.0 in /  0 mm 0.0 W/m2 CLR
04:24 7.8 °F /  -13.4 °C 3.8 °F /  -15.7 °C 1018.8 in /  34496.6 hPa NW 20.4 mph /  32.8 km/h 20.4 mph /  32.8 km/h 76 % 0.0 in /  0 mm 0.0 W/m2 CLR
04:29 7.8 °F /  -13.4 °C 3.8 °F /  -15.7 °C 1018.8 in /  34496.6 hPa NW 18.5 mph /  29.8 km/h 18.5 mph /  29.8 km/h 76 % 0.0 in /  0 mm 0.0 W/m2 CLR
04:34 7.8 °F /  -13.4 °C 3.8 °F /  -15.7 °C 1018.8 in /  34496.6 hPa NW 18.5 mph /  29.8 km/h 18.5 mph /  29.8 km/h 76 % 0.0 in /  0 mm 0.0 W/m2 CLR
04:39 7.8 °F /  -13.4 °C 3.8 °F /  -15.7 °C 1018.8 in /  34496.6 hPa NW 16.7 mph /  26.9 km/h 16.7 mph /  26.9 km/h 76 % 0.0 in /  0 mm 0.0 W/m2 CLR
04:44 7.8 °F /  -13.4 °C 3.8 °F /  -15.7 °C 1018.8 in /  34496.6 hPa NW 13.0 mph /  20.9 km/h 13.0 mph /  20.9 km/h 76 % 0.0 in /  0 mm 0.0 W/m2 CLR
04:49 7.8 °F /  -13.4 °C 3.8 °F /  -15.7 °C 1018.8 in /  34496.6 hPa NW 14.8 mph /  23.8 km/h 14.8 mph /  23.8 km/h 76 % 0.0 in /  0 mm 0.0 W/m2 CLR
04:54 7.8 °F /  -13.4 °C 3.8 °F /  -15.7 °C 1018.8 in /  34496.6 hPa WNW 14.5 mph /  23.3 km/h 14.5 mph /  23.3 km/h 76 % 0.0 in /  0 mm 0.0 W/m2 CLR
04:59 7.8 °F /  -13.4 °C 3.8 °F /  -15.7 °C 1018.8 in /  34496.6 hPa WNW 16.7 mph /  26.9 km/h 16.7 mph /  26.9 km/h 76 % 0.0 in /  0 mm 0.0 W/m2 CLR
05:04 7.8 °F /  -13.4 °C 4.0 °F /  -15.6 °C 1018.8 in /  34496.6 hPa WNW 16.1 mph /  25.9 km/h 16.1 mph /  25.9 km/h 77 % 0.0 in /  0 mm 0.0 W/m2 CLR
05:09 7.8 °F /  -13.4 °C 4.2 °F /  -15.4 °C 1018.8 in /  34496.6 hPa WNW 16.7 mph /  26.9 km/h 16.7 mph /  26.9 km/h 78 % 0.0 in /  0 mm 0.0 W/m2 CLR
05:14 7.8 °F /  -13.4 °C 4.2 °F /  -15.4 °C 1018.8 in /  34496.6 hPa WNW 16.7 mph /  26.9 km/h 16.7 mph /  26.9 km/h 78 % 0.0 in /  0 mm 0.0 W/m2 CLR
05:19 7.8 °F /  -13.4 °C 4.4 °F /  -15.3 °C 1018.8 in /  34496.6 hPa NW 14.8 mph /  23.8 km/h 14.8 mph /  23.8 km/h 79 % 0.0 in /  0 mm 0.0 W/m2 CLR
05:24 7.8 °F /  -13.4 °C 4.4 °F /  -15.3 °C 1018.8 in /  34496.6 hPa NW 13.0 mph /  20.9 km/h 13.0 mph /  20.9 km/h 79 % 0.0 in /  0 mm 0.0 W/m2 CLR
05:29 7.8 °F /  -13.4 °C 4.6 °F /  -15.2 °C 1018.8 in /  34496.6 hPa NW 16.1 mph /  25.9 km/h 16.1 mph /  25.9 km/h 80 % 0.0 in /  0 mm 0.0 W/m2 CLR
05:34 7.8 °F /  -13.4 °C 4.6 °F /  -15.2 °C 1018.8 in /  34496.6 hPa WSW 16.7 mph /  26.9 km/h 16.7 mph /  26.9 km/h 80 % 0.0 in /  0 mm 0.0 W/m2 CLR
05:39 7.8 °F /  -13.4 °C 4.6 °F /  -15.2 °C 1018.8 in /  34496.6 hPa NW 13.0 mph /  20.9 km/h 13.0 mph /  20.9 km/h 80 % 0.0 in /  0 mm 0.0 W/m2 CLR
05:44 7.2 °F /  -13.8 °C 4.0 °F /  -15.6 °C 1018.8 in /  34496.6 hPa WNW 18.5 mph /  29.8 km/h 18.5 mph /  29.8 km/h 80 % 0.0 in /  0 mm 0.0 W/m2 CLR
05:49 7.2 °F /  -13.8 °C 4.0 °F /  -15.6 °C 1018.8 in /  34496.6 hPa WNW 13.0 mph /  20.9 km/h 13.0 mph /  20.9 km/h 80 % 0.0 in /  0 mm 0.0 W/m2 CLR
05:54 7.2 °F /  -13.8 °C 4.2 °F /  -15.4 °C 1019.2 in /  34510.1 hPa WNW 16.7 mph /  26.9 km/h 16.7 mph /  26.9 km/h 81 % 0.0 in /  0 mm 0.0 W/m2 CLR
05:59 7.2 °F /  -13.8 °C 4.3 °F /  -15.4 °C 1018.8 in /  34496.6 hPa WNW 8.0 mph /  12.9 km/h 8.0 mph /  12.9 km/h 82 % 0.0 in /  0 mm 0.0 W/m2 CLR
06:04 7.2 °F /  -13.8 °C 4.5 °F /  -15.3 °C 1018.8 in /  34496.6 hPa NW 8.0 mph /  12.9 km/h 8.0 mph /  12.9 km/h 83 % 0.0 in /  0 mm 0.0 W/m2 CLR
06:09 7.2 °F /  -13.8 °C 4.7 °F /  -15.2 °C 1018.8 in /  34496.6 hPa Calm     84 % 0.0 in /  0 mm 0.0 W/m2 CLR
06:14 7.2 °F /  -13.8 °C 4.7 °F /  -15.2 °C 1018.8 in /  34496.6 hPa Calm     84 % 0.0 in /  0 mm 0.0 W/m2 CLR
06:19 7.2 °F /  -13.8 °C 4.9 °F /  -15.1 °C 1018.8 in /  34496.6 hPa Calm     85 % 0.0 in /  0 mm 0.0 W/m2 CLR
06:24 7.2 °F /  -13.8 °C 4.9 °F /  -15.1 °C 1019.2 in /  34510.1 hPa Calm     85 % 0.0 in /  0 mm 0.0 W/m2 CLR
06:29 7.2 °F /  -13.8 °C 4.9 °F /  -15.1 °C 1019.2 in /  34510.1 hPa Calm     85 % 0.0 in /  0 mm 0.0 W/m2 CLR
06:34 7.2 °F /  -13.8 °C 5.1 °F /  -14.9 °C 1019.2 in /  34510.1 hPa Calm     86 % 0.0 in /  0 mm 0.0 W/m2 CLR
06:39 7.2 °F /  -13.8 °C 5.1 °F /  -14.9 °C 1019.2 in /  34510.1 hPa Calm     86 % 0.0 in /  0 mm 0.0 W/m2 CLR
06:45 7.2 °F /  -13.8 °C 5.1 °F /  -14.9 °C 1019.2 in /  34510.1 hPa Calm     86 % 0.0 in /  0 mm 0.0 W/m2 CLR
06:50 7.2 °F /  -13.8 °C 5.2 °F /  -14.9 °C 1019.2 in /  34510.1 hPa Calm     87 % 0.0 in /  0 mm 0.0 W/m2 CLR
06:55 6.7 °F /  -14.1 °C 4.7 °F /  -15.2 °C 1018.8 in /  34496.6 hPa Calm     87 % 0.0 in /  0 mm 0.0 W/m2 CLR
07:00 7.2 °F /  -13.8 °C 5.2 °F /  -14.9 °C 1018.8 in /  34496.6 hPa West 9.3 mph /  15 km/h 9.3 mph /  15 km/h 87 % 0.0 in /  0 mm 0.0 W/m2 CLR
07:05 7.2 °F /  -13.8 °C 5.2 °F /  -14.9 °C 1019.2 in /  34510.1 hPa WNW 11.1 mph /  17.9 km/h 11.1 mph /  17.9 km/h 87 % 0.0 in /  0 mm 0.0 W/m2 CLR
07:10 7.2 °F /  -13.8 °C 5.2 °F /  -14.9 °C 1019.2 in /  34510.1 hPa WNW 9.3 mph /  15 km/h 9.3 mph /  15 km/h 87 % 0.0 in /  0 mm 0.0 W/m2 CLR
07:15 7.2 °F /  -13.8 °C 5.2 °F /  -14.9 °C 1019.2 in /  34510.1 hPa WNW 5.6 mph /  9 km/h 5.6 mph /  9 km/h 87 % 0.0 in /  0 mm 0.0 W/m2 CLR
07:20 7.2 °F /  -13.8 °C 5.2 °F /  -14.9 °C 1019.2 in /  34510.1 hPa West 11.3 mph /  18.2 km/h 11.3 mph /  18.2 km/h 87 % 0.0 in /  0 mm 0.0 W/m2 CLR
07:25 6.7 °F /  -14.1 °C 4.5 °F /  -15.3 °C 1019.2 in /  34510.1 hPa WNW 7.4 mph /  11.9 km/h 7.4 mph /  11.9 km/h 86 % 0.0 in /  0 mm 0.0 W/m2 CLR
07:30 6.7 °F /  -14.1 °C 4.5 °F /  -15.3 °C 1019.2 in /  34510.1 hPa WNW 13.0 mph /  20.9 km/h 13.0 mph /  20.9 km/h 86 % 0.0 in /  0 mm 0.0 W/m2 CLR
07:35 6.7 °F /  -14.1 °C 4.5 °F /  -15.3 °C 1019.2 in /  34510.1 hPa WNW 11.1 mph /  17.9 km/h 11.1 mph /  17.9 km/h 86 % 0.0 in /  0 mm 0.0 W/m2 CLR
07:40 6.7 °F /  -14.1 °C 4.5 °F /  -15.3 °C 1019.2 in /  34510.1 hPa West 13.0 mph /  20.9 km/h 13.0 mph /  20.9 km/h 86 % 0.0 in /  0 mm 0.0 W/m2 CLR
07:45 6.7 °F /  -14.1 °C 4.5 °F /  -15.3 °C 1019.2 in /  34510.1 hPa West 16.7 mph /  26.9 km/h 16.7 mph /  26.9 km/h 86 % 0.0 in /  0 mm 0.0 W/m2 OVC
07:50 6.7 °F /  -14.1 °C 4.5 °F /  -15.3 °C 1019.2 in /  34510.1 hPa West 14.8 mph /  23.8 km/h 14.8 mph /  23.8 km/h 86 % 0.0 in /  0 mm 0.0 W/m2 OVC
07:55 6.7 °F /  -14.1 °C 4.5 °F /  -15.3 °C 1019.2 in /  34510.1 hPa West 11.1 mph /  17.9 km/h 11.1 mph /  17.9 km/h 86 % 0.0 in /  0 mm 0.0 W/m2 OVC
08:00 7.2 °F /  -13.8 °C 5.1 °F /  -14.9 °C 1019.2 in /  34510.1 hPa WNW 13.0 mph /  20.9 km/h 13.0 mph /  20.9 km/h 86 % 0.0 in /  0 mm 0.0 W/m2 OVC
08:05 7.2 °F /  -13.8 °C 5.1 °F /  -14.9 °C 1019.2 in /  34510.1 hPa West 13.0 mph /  20.9 km/h 13.0 mph /  20.9 km/h 86 % 0.0 in /  0 mm 5.0 W/m2 OVC
08:10 7.2 °F /  -13.8 °C 5.1 °F /  -14.9 °C 1019.2 in /  34510.1 hPa West 13.0 mph /  20.9 km/h 13.0 mph /  20.9 km/h 86 % 0.0 in /  0 mm 7.0 W/m2 BKN
08:15 6.7 °F /  -14.1 °C 4.5 °F /  -15.3 °C 1019.2 in /  34510.1 hPa West 3.7 mph /  6 km/h 3.7 mph /  6 km/h 86 % 0.0 in /  0 mm 12.0 W/m2 BKN
08:20 6.7 °F /  -14.1 °C 4.3 °F /  -15.4 °C 1019.5 in /  34520.3 hPa West 7.4 mph /  11.9 km/h 7.4 mph /  11.9 km/h 85 % 0.0 in /  0 mm 16.0 W/m2 BKN
08:25 7.2 °F /  -13.8 °C 4.9 °F /  -15.1 °C 1019.5 in /  34520.3 hPa West 7.4 mph /  11.9 km/h 7.4 mph /  11.9 km/h 85 % 0.0 in /  0 mm 18.0 W/m2 BKN
08:30 7.2 °F /  -13.8 °C 4.9 °F /  -15.1 °C 1019.5 in /  34520.3 hPa West 5.6 mph /  9 km/h 5.6 mph /  9 km/h 85 % 0.0 in /  0 mm 21.0 W/m2 BKN
08:35 6.7 °F /  -14.1 °C 4.2 °F /  -15.4 °C 1019.5 in /  34520.3 hPa West 14.8 mph /  23.8 km/h 14.8 mph /  23.8 km/h 84 % 0.0 in /  0 mm 25.0 W/m2 BKN
08:40 6.7 °F /  -14.1 °C 4.2 °F /  -15.4 °C 1019.5 in /  34520.3 hPa West 7.4 mph /  11.9 km/h 7.4 mph /  11.9 km/h 84 % 0.0 in /  0 mm 30.0 W/m2 BKN
08:45 6.7 °F /  -14.1 °C 4.0 °F /  -15.6 °C 1019.5 in /  34520.3 hPa West 1.9 mph /  3.1 km/h 1.9 mph /  3.1 km/h 83 % 0.0 in /  0 mm 40.0 W/m2 BKN
08:50 6.1 °F /  -14.4 °C 3.4 °F /  -15.9 °C 1019.5 in /  34520.3 hPa Calm     83 % 0.0 in /  0 mm 56.0 W/m2 SCT
08:55 6.1 °F /  -14.4 °C 3.6 °F /  -15.8 °C 1019.5 in /  34520.3 hPa Calm     84 % 0.0 in /  0 mm 60.0 W/m2 SCT
09:00 6.1 °F /  -14.4 °C 3.4 °F /  -15.9 °C 1019.5 in /  34520.3 hPa Calm     83 % 0.0 in /  0 mm 76.0 W/m2 SCT
09:05 6.1 °F /  -14.4 °C 3.6 °F /  -15.8 °C 1019.5 in /  34520.3 hPa Calm     84 % 0.0 in /  0 mm 60.0 W/m2 FEW
09:10 6.1 °F /  -14.4 °C 3.4 °F /  -15.9 °C 1019.5 in /  34520.3 hPa Calm     83 % 0.0 in /  0 mm 88.0 W/m2 FEW
09:15 6.1 °F /  -14.4 °C 3.4 °F /  -15.9 °C 1019.5 in /  34520.3 hPa Calm     83 % 0.0 in /  0 mm 84.0 W/m2 FEW
09:20 6.1 °F /  -14.4 °C 3.4 °F /  -15.9 °C 1019.5 in /  34520.3 hPa NW 14.8 mph /  23.8 km/h 14.8 mph /  23.8 km/h 83 % 0.0 in /  0 mm 90.0 W/m2 CLR
09:25 6.1 °F /  -14.4 °C 2.9 °F /  -16.2 °C 1019.5 in /  34520.3 hPa WNW 16.7 mph /  26.9 km/h 16.7 mph /  26.9 km/h 80 % 0.0 in /  0 mm 100.0 W/m2 CLR
09:30 6.7 °F /  -14.1 °C 2.9 °F /  -16.2 °C 1019.5 in /  34520.3 hPa WNW 16.7 mph /  26.9 km/h 16.7 mph /  26.9 km/h 77 % 0.0 in /  0 mm 130.0 W/m2 CLR
09:35 7.2 °F /  -13.8 °C 3.1 °F /  -16.1 °C 1019.5 in /  34520.3 hPa NW 16.7 mph /  26.9 km/h 16.7 mph /  26.9 km/h 75 % 0.0 in /  0 mm 204.0 W/m2 CLR
09:40 7.8 °F /  -13.4 °C 3.4 °F /  -15.9 °C 1019.5 in /  34520.3 hPa WNW 14.8 mph /  23.8 km/h 14.8 mph /  23.8 km/h 74 % 0.0 in /  0 mm 223.0 W/m2 CLR
09:45 8.9 °F /  -12.8 °C 4.3 °F /  -15.4 °C 1019.9 in /  34533.8 hPa WNW 7.4 mph /  11.9 km/h 7.4 mph /  11.9 km/h 73 % 0.0 in /  0 mm 218.0 W/m2 CLR
09:50 9.4 °F /  -12.6 °C 4.8 °F /  -15.1 °C 1019.9 in /  34533.8 hPa WNW 16.7 mph /  26.9 km/h 16.7 mph /  26.9 km/h 73 % 0.0 in /  0 mm 236.0 W/m2 CLR
09:55 10.6 °F /  -11.9 °C 5.7 °F /  -14.6 °C 1019.9 in /  34533.8 hPa NW 18.5 mph /  29.8 km/h 18.5 mph /  29.8 km/h 72 % 0.0 in /  0 mm 267.0 W/m2 CLR
10:00 10.6 °F /  -11.9 °C 5.7 °F /  -14.6 °C 1019.9 in /  34533.8 hPa NW 18.5 mph /  29.8 km/h 18.5 mph /  29.8 km/h 72 % 0.0 in /  0 mm 297.0 W/m2 CLR
10:05 11.1 °F /  -11.6 °C 5.8 °F /  -14.6 °C 1019.9 in /  34533.8 hPa NW 12.9 mph /  20.8 km/h 12.9 mph /  20.8 km/h 70 % 0.0 in /  0 mm 274.0 W/m2 CLR
10:10 11.1 °F /  -11.6 °C 5.8 °F /  -14.6 °C 1019.9 in /  34533.8 hPa NW 22.5 mph /  36.2 km/h 22.5 mph /  36.2 km/h 70 % 0.0 in /  0 mm 323.0 W/m2 CLR
10:15 11.1 °F /  -11.6 °C 5.6 °F /  -14.7 °C 1019.9 in /  34533.8 hPa NNW 5.6 mph /  9 km/h 5.6 mph /  9 km/h 69 % 0.0 in /  0 mm 336.0 W/m2 CLR
10:20 11.7 °F /  -11.3 °C 6.2 °F /  -14.3 °C 1020.2 in /  34544 hPa NNW 29.6 mph /  47.6 km/h 29.6 mph /  47.6 km/h 69 % 0.0 in /  0 mm 369.0 W/m2 CLR
10:25 12.2 °F /  -11 °C 6.7 °F /  -14.1 °C 1019.9 in /  34533.8 hPa WNW 22.2 mph /  35.7 km/h 22.2 mph /  35.7 km/h 69 % 0.0 in /  0 mm 359.0 W/m2 CLR
10:30 12.2 °F /  -11 °C 6.3 °F /  -14.3 °C 1020.2 in /  34544 hPa NNW 22.2 mph /  35.7 km/h 22.2 mph /  35.7 km/h 67 % 0.0 in /  0 mm 348.0 W/m2 CLR
10:35 12.2 °F /  -11 °C 6.3 °F /  -14.3 °C 1020.2 in /  34544 hPa NNW 31.5 mph /  50.7 km/h 31.5 mph /  50.7 km/h 67 % 0.0 in /  0 mm 338.0 W/m2 CLR
10:40 12.2 °F /  -11 °C 6.3 °F /  -14.3 °C 1020.2 in /  34544 hPa NW 20.4 mph /  32.8 km/h 20.4 mph /  32.8 km/h 67 % 0.0 in /  0 mm 408.0 W/m2 CLR
10:45 12.8 °F /  -10.7 °C 6.6 °F /  -14.1 °C 1020.2 in /  34544 hPa NW 27.8 mph /  44.7 km/h 27.8 mph /  44.7 km/h 66 % 0.0 in /  0 mm 397.0 W/m2 CLR
10:50 12.8 °F /  -10.7 °C 6.6 °F /  -14.1 °C 1020.2 in /  34544 hPa NW 24.1 mph /  38.8 km/h 24.1 mph /  38.8 km/h 66 % 0.0 in /  0 mm 399.0 W/m2 CLR
10:56 12.8 °F /  -10.7 °C 6.3 °F /  -14.3 °C 1020.2 in /  34544 hPa NNW 31.5 mph /  50.7 km/h 31.5 mph /  50.7 km/h 65 % 0.0 in /  0 mm 434.0 W/m2 CLR
11:00 13.3 °F /  -10.4 °C 6.9 °F /  -13.9 °C 1020.2 in /  34544 hPa North 25.9 mph /  41.7 km/h 25.9 mph /  41.7 km/h 65 % 0.0 in /  0 mm 413.0 W/m2 CLR
11:06 13.3 °F /  -10.4 °C 6.9 °F /  -13.9 °C 1020.2 in /  34544 hPa NNW 35.2 mph /  56.6 km/h 35.2 mph /  56.6 km/h 65 % 0.0 in /  0 mm 489.0 W/m2 CLR
11:11 13.3 °F /  -10.4 °C 6.4 °F /  -14.2 °C 1020.5 in /  34554.1 hPa NW 46.3 mph /  74.5 km/h 46.3 mph /  74.5 km/h 63 % 0.0 in /  0 mm 543.0 W/m2 CLR
11:16 13.9 °F /  -10.1 °C 6.9 °F /  -13.9 °C 1020.2 in /  34544 hPa NW 37.0 mph /  59.5 km/h 37.0 mph /  59.5 km/h 63 % 0.0 in /  0 mm 434.0 W/m2 CLR
11:21 13.3 °F /  -10.4 °C 6.4 °F /  -14.2 °C 1020.5 in /  34554.1 hPa NNW 42.6 mph /  68.6 km/h 42.6 mph /  68.6 km/h 63 % 0.0 in /  0 mm 283.0 W/m2 CLR
11:26 13.3 °F /  -10.4 °C 6.7 °F /  -14.1 °C 1020.2 in /  34544 hPa NW 31.5 mph /  50.7 km/h 31.5 mph /  50.7 km/h 64 % 0.0 in /  0 mm 241.0 W/m2 CLR
11:31 13.3 °F /  -10.4 °C 6.4 °F /  -14.2 °C 1020.2 in /  34544 hPa NNW 38.9 mph /  62.6 km/h 38.9 mph /  62.6 km/h 63 % 0.0 in /  0 mm 330.0 W/m2 CLR
11:36 13.3 °F /  -10.4 °C 6.7 °F /  -14.1 °C 1020.5 in /  34554.1 hPa North 27.8 mph /  44.7 km/h 27.8 mph /  44.7 km/h 64 % 0.0 in /  0 mm 309.0 W/m2 CLR
11:41 13.9 °F /  -10.1 °C 7.2 °F /  -13.8 °C 1020.5 in /  34554.1 hPa North 31.5 mph /  50.7 km/h 31.5 mph /  50.7 km/h 64 % 0.0 in /  0 mm 548.0 W/m2 CLR
11:46 13.9 °F /  -10.1 °C 6.7 °F /  -14.1 °C 1020.5 in /  34554.1 hPa North 40.7 mph /  65.5 km/h 40.7 mph /  65.5 km/h 62 % 0.0 in /  0 mm 345.0 W/m2 CLR
11:51 13.9 °F /  -10.1 °C 6.7 °F /  -14.1 °C 1020.5 in /  34554.1 hPa NW 31.5 mph /  50.7 km/h 31.5 mph /  50.7 km/h 62 % 0.0 in /  0 mm 265.0 W/m2 CLR
11:56 13.9 °F /  -10.1 °C 6.7 °F /  -14.1 °C 1020.5 in /  34554.1 hPa NW 33.3 mph /  53.6 km/h 33.3 mph /  53.6 km/h 62 % 0.0 in /  0 mm 292.0 W/m2 CLR
12:01 13.9 °F /  -10.1 °C 6.9 °F /  -13.9 °C 1020.5 in /  34554.1 hPa North 29.6 mph /  47.6 km/h 29.6 mph /  47.6 km/h 63 % 0.0 in /  0 mm 290.0 W/m2 CLR
12:06 13.9 °F /  -10.1 °C 6.9 °F /  -13.9 °C 1020.5 in /  34554.1 hPa North 27.8 mph /  44.7 km/h 27.8 mph /  44.7 km/h 63 % 0.0 in /  0 mm 350.0 W/m2 CLR
12:11 14.4 °F /  -9.8 °C 7.5 °F /  -13.6 °C 1020.5 in /  34554.1 hPa NW 31.5 mph /  50.7 km/h 31.5 mph /  50.7 km/h 63 % 0.0 in /  0 mm 490.0 W/m2 CLR
12:16 14.4 °F /  -9.8 °C 7.5 °F /  -13.6 °C 1020.5 in /  34554.1 hPa NNW 18.5 mph /  29.8 km/h 18.5 mph /  29.8 km/h 63 % 0.0 in /  0 mm 506.0 W/m2 CLR
12:21 15.0 °F /  -9.4 °C 7.8 °F /  -13.4 °C 1020.2 in /  34544 hPa North 31.5 mph /  50.7 km/h 31.5 mph /  50.7 km/h 62 % 0.0 in /  0 mm 455.0 W/m2 CLR
12:26 15.0 °F /  -9.4 °C 7.8 °F /  -13.4 °C 1020.5 in /  34554.1 hPa North 33.3 mph /  53.6 km/h 33.3 mph /  53.6 km/h 62 % 0.0 in /  0 mm 427.0 W/m2 CLR
12:31 15.0 °F /  -9.4 °C 7.8 °F /  -13.4 °C 1020.5 in /  34554.1 hPa North 33.3 mph /  53.6 km/h 33.3 mph /  53.6 km/h 62 % 0.0 in /  0 mm 385.0 W/m2 CLR
12:36 15.0 °F /  -9.4 °C 7.8 °F /  -13.4 °C 1020.2 in /  34544 hPa North 27.8 mph /  44.7 km/h 27.8 mph /  44.7 km/h 62 % 0.0 in /  0 mm 506.0 W/m2 CLR
12:41 15.0 °F /  -9.4 °C 7.3 °F /  -13.7 °C 1020.2 in /  34544 hPa NW 31.5 mph /  50.7 km/h 31.5 mph /  50.7 km/h 60 % 0.0 in /  0 mm 548.0 W/m2 CLR
12:46 15.0 °F /  -9.4 °C 7.6 °F /  -13.6 °C 1020.2 in /  34544 hPa North 31.5 mph /  50.7 km/h 31.5 mph /  50.7 km/h 61 % 0.0 in /  0 mm 403.0 W/m2 CLR
12:51 15.0 °F /  -9.4 °C 7.3 °F /  -13.7 °C 1020.2 in /  34544 hPa North 27.8 mph /  44.7 km/h 27.8 mph /  44.7 km/h 60 % 0.0 in /  0 mm 397.0 W/m2 CLR
12:56 15.0 °F /  -9.4 °C 7.6 °F /  -13.6 °C 1020.2 in /  34544 hPa NNW 24.1 mph /  38.8 km/h 24.1 mph /  38.8 km/h 61 % 0.0 in /  0 mm 373.0 W/m2 CLR
13:01 15.0 °F /  -9.4 °C 7.6 °F /  -13.6 °C 1019.9 in /  34533.8 hPa North 30.6 mph /  49.2 km/h 30.6 mph /  49.2 km/h 61 % 0.0 in /  0 mm 366.0 W/m2 CLR
13:06 15.0 °F /  -9.4 °C 7.8 °F /  -13.4 °C 1019.9 in /  34533.8 hPa North 22.2 mph /  35.7 km/h 22.2 mph /  35.7 km/h 62 % 0.0 in /  0 mm 380.0 W/m2 CLR
13:11 15.0 °F /  -9.4 °C 7.8 °F /  -13.4 °C 1019.9 in /  34533.8 hPa North 20.4 mph /  32.8 km/h 20.4 mph /  32.8 km/h 62 % 0.0 in /  0 mm 420.0 W/m2 CLR
13:16 15.0 °F /  -9.4 °C 7.6 °F /  -13.6 °C 1019.9 in /  34533.8 hPa North 31.5 mph /  50.7 km/h 31.5 mph /  50.7 km/h 61 % 0.0 in /  0 mm 345.0 W/m2 CLR
13:21 15.0 °F /  -9.4 °C 7.8 °F /  -13.4 °C 1019.9 in /  34533.8 hPa NNE 17.7 mph /  28.5 km/h 17.7 mph /  28.5 km/h 62 % 0.0 in /  0 mm 294.0 W/m2 CLR
13:26 14.4 °F /  -9.8 °C 7.5 °F /  -13.6 °C 1019.9 in /  34533.8 hPa NNW 18.5 mph /  29.8 km/h 18.5 mph /  29.8 km/h 63 % 0.0 in /  0 mm 343.0 W/m2 CLR
13:31 14.4 °F /  -9.8 °C 7.7 °F /  -13.5 °C 1019.9 in /  34533.8 hPa NE 20.4 mph /  32.8 km/h 20.4 mph /  32.8 km/h 64 % 0.0 in /  0 mm 223.0 W/m2 CLR
13:36 14.4 °F /  -9.8 °C 7.9 °F /  -13.4 °C 1019.9 in /  34533.8 hPa NNE 14.8 mph /  23.8 km/h 14.8 mph /  23.8 km/h 65 % 0.0 in /  0 mm 186.0 W/m2 CLR
13:41 13.9 °F /  -10.1 °C 7.4 °F /  -13.7 °C 1019.9 in /  34533.8 hPa North 16.7 mph /  26.9 km/h 16.7 mph /  26.9 km/h 65 % 0.0 in /  0 mm 213.0 W/m2 CLR
13:46 13.3 °F /  -10.4 °C 7.1 °F /  -13.8 °C 1019.9 in /  34533.8 hPa NW 20.4 mph /  32.8 km/h 20.4 mph /  32.8 km/h 66 % 0.0 in /  0 mm 200.0 W/m2 CLR
13:51 13.9 °F /  -10.1 °C 7.6 °F /  -13.6 °C 1019.9 in /  34533.8 hPa NNW 11.1 mph /  17.9 km/h 11.1 mph /  17.9 km/h 66 % 0.0 in /  0 mm 339.0 W/m2 CLR
13:56 13.9 °F /  -10.1 °C 8.1 °F /  -13.3 °C 1019.9 in /  34533.8 hPa North 20.9 mph /  33.6 km/h 20.9 mph /  33.6 km/h 68 % 0.0 in /  0 mm 510.0 W/m2 CLR
14:01 14.4 °F /  -9.8 °C 8.2 °F /  -13.2 °C 1019.9 in /  34533.8 hPa North 11.3 mph /  18.2 km/h 11.3 mph /  18.2 km/h 66 % 0.0 in /  0 mm 367.0 W/m2 CLR
14:06 14.4 °F /  -9.8 °C 8.2 °F /  -13.2 °C 1019.9 in /  34533.8 hPa North 22.2 mph /  35.7 km/h 22.2 mph /  35.7 km/h 66 % 0.0 in /  0 mm 295.0 W/m2 CLR
14:11 14.4 °F /  -9.8 °C 7.9 °F /  -13.4 °C 1019.9 in /  34533.8 hPa NNW 18.5 mph /  29.8 km/h 18.5 mph /  29.8 km/h 65 % 0.0 in /  0 mm 262.0 W/m2 CLR
14:16 14.4 °F /  -9.8 °C 8.2 °F /  -13.2 °C 1019.9 in /  34533.8 hPa NNW 14.8 mph /  23.8 km/h 14.8 mph /  23.8 km/h 66 % 0.0 in /  0 mm 272.0 W/m2 CLR
14:21 14.4 °F /  -9.8 °C 7.9 °F /  -13.4 °C 1019.9 in /  34533.8 hPa NNW 24.1 mph /  38.8 km/h 24.1 mph /  38.8 km/h 65 % 0.0 in /  0 mm 279.0 W/m2 CLR
14:26 14.4 °F /  -9.8 °C 7.9 °F /  -13.4 °C 1019.5 in /  34520.3 hPa NNW 18.5 mph /  29.8 km/h 18.5 mph /  29.8 km/h 65 % 0.0 in /  0 mm 323.0 W/m2 CLR
14:31 15.0 °F /  -9.4 °C 8.4 °F /  -13.1 °C 1019.5 in /  34520.3 hPa NNW 20.9 mph /  33.6 km/h 20.9 mph /  33.6 km/h 65 % 0.0 in /  0 mm 260.0 W/m2 CLR
14:32 15.0 °F /  -9.4 °C 8.4 °F /  -13.1 °C 1019.5 in /  34520.3 hPa North 24.1 mph /  38.8 km/h 24.1 mph /  38.8 km/h 65 % 0.0 in /  0 mm 260.0 W/m2 CLR
14:37 15.0 °F /  -9.4 °C 8.0 °F /  -13.3 °C 1019.5 in /  34520.3 hPa NNW 22.2 mph /  35.7 km/h 22.2 mph /  35.7 km/h 63 % 0.0 in /  0 mm 197.0 W/m2 CLR
14:42 14.4 °F /  -9.8 °C 7.7 °F /  -13.5 °C 1019.5 in /  34520.3 hPa NNW 18.5 mph /  29.8 km/h 18.5 mph /  29.8 km/h 64 % 0.0 in /  0 mm 181.0 W/m2 CLR
14:47 14.4 °F /  -9.8 °C 7.9 °F /  -13.4 °C 1019.5 in /  34520.3 hPa NNW 22.2 mph /  35.7 km/h 22.2 mph /  35.7 km/h 65 % 0.0 in /  0 mm 181.0 W/m2 CLR
14:52 14.4 °F /  -9.8 °C 7.9 °F /  -13.4 °C 1019.5 in /  34520.3 hPa NNW 18.5 mph /  29.8 km/h 18.5 mph /  29.8 km/h 65 % 0.0 in /  0 mm 183.0 W/m2 CLR
14:57 14.4 °F /  -9.8 °C 8.4 °F /  -13.1 °C 1019.5 in /  34520.3 hPa North 14.5 mph /  23.3 km/h 14.5 mph /  23.3 km/h 67 % 0.0 in /  0 mm 197.0 W/m2 CLR
15:02 14.4 °F /  -9.8 °C 7.9 °F /  -13.4 °C 1019.5 in /  34520.3 hPa North 14.8 mph /  23.8 km/h 14.8 mph /  23.8 km/h 65 % 0.0 in /  0 mm 227.0 W/m2 CLR
15:07 14.4 °F /  -9.8 °C 7.9 °F /  -13.4 °C 1019.5 in /  34520.3 hPa NNW 27.8 mph /  44.7 km/h 27.8 mph /  44.7 km/h 65 % 0.0 in /  0 mm 204.0 W/m2 CLR
15:12 14.4 °F /  -9.8 °C 7.7 °F /  -13.5 °C 1019.5 in /  34520.3 hPa NNE 13.0 mph /  20.9 km/h 13.0 mph /  20.9 km/h 64 % 0.0 in /  0 mm 197.0 W/m2 CLR
15:17 14.4 °F /  -9.8 °C 7.9 °F /  -13.4 °C 1019.9 in /  34533.8 hPa NNE 11.3 mph /  18.2 km/h 11.3 mph /  18.2 km/h 65 % 0.0 in /  0 mm 192.0 W/m2 CLR
15:22 14.4 °F /  -9.8 °C 8.2 °F /  -13.2 °C 1019.9 in /  34533.8 hPa North 1.9 mph /  3.1 km/h 1.9 mph /  3.1 km/h 66 % 0.0 in /  0 mm 181.0 W/m2 CLR
15:27 14.4 °F /  -9.8 °C 7.9 °F /  -13.4 °C 1019.9 in /  34533.8 hPa North 16.7 mph /  26.9 km/h 16.7 mph /  26.9 km/h 65 % 0.0 in /  0 mm 179.0 W/m2 CLR
15:32 14.4 °F /  -9.8 °C 7.9 °F /  -13.4 °C 1019.9 in /  34533.8 hPa NNE 18.5 mph /  29.8 km/h 18.5 mph /  29.8 km/h 65 % 0.0 in /  0 mm 190.0 W/m2 CLR
15:37 14.4 °F /  -9.8 °C 7.9 °F /  -13.4 °C 1019.9 in /  34533.8 hPa North 22.2 mph /  35.7 km/h 22.2 mph /  35.7 km/h 65 % 0.0 in /  0 mm 183.0 W/m2 CLR
15:42 13.9 °F /  -10.1 °C 7.6 °F /  -13.6 °C 1019.9 in /  34533.8 hPa North 14.8 mph /  23.8 km/h 14.8 mph /  23.8 km/h 66 % 0.0 in /  0 mm 148.0 W/m2 CLR
15:47 13.9 °F /  -10.1 °C 8.1 °F /  -13.3 °C 1019.9 in /  34533.8 hPa NE 14.5 mph /  23.3 km/h 14.5 mph /  23.3 km/h 68 % 0.0 in /  0 mm 132.0 W/m2 CLR
15:52 13.3 °F /  -10.4 °C 7.6 °F /  -13.6 °C 1019.9 in /  34533.8 hPa North 14.8 mph /  23.8 km/h 14.8 mph /  23.8 km/h 68 % 0.0 in /  0 mm 127.0 W/m2 CLR
15:57 13.3 °F /  -10.4 °C 7.8 °F /  -13.4 °C 1019.9 in /  34533.8 hPa North 9.3 mph /  15 km/h 9.3 mph /  15 km/h 69 % 0.0 in /  0 mm 135.0 W/m2 CLR
16:02 13.3 °F /  -10.4 °C 7.8 °F /  -13.4 °C 1019.9 in /  34533.8 hPa NNE 5.6 mph /  9 km/h   69 % 0.0 in /  0 mm 91.0 W/m2 CLR
16:07 13.3 °F /  -10.4 °C 7.8 °F /  -13.4 °C 1019.9 in /  34533.8 hPa Calm     69 % 0.0 in /  0 mm 65.0 W/m2 CLR
16:12 13.3 °F /  -10.4 °C 7.8 °F /  -13.4 °C 1019.9 in /  34533.8 hPa NNW 9.3 mph /  15 km/h 9.3 mph /  15 km/h 69 % 0.0 in /  0 mm 53.0 W/m2 FEW
16:17 13.3 °F /  -10.4 °C 8.0 °F /  -13.3 °C 1020.2 in /  34544 hPa North 11.3 mph /  18.2 km/h 11.3 mph /  18.2 km/h 70 % 0.0 in /  0 mm 47.0 W/m2 SCT
16:22 13.3 °F /  -10.4 °C 8.0 °F /  -13.3 °C 1020.2 in /  34544 hPa Calm     70 % 0.0 in /  0 mm 47.0 W/m2 SCT
16:27 13.3 °F /  -10.4 °C 8.2 °F /  -13.2 °C 1020.2 in /  34544 hPa Calm     71 % 0.0 in /  0 mm 42.0 W/m2 SCT
16:32 13.3 °F /  -10.4 °C 8.4 °F /  -13.1 °C 1020.2 in /  34544 hPa Calm     72 % 0.0 in /  0 mm 37.0 W/m2 BKN
16:37 12.8 °F /  -10.7 °C 7.8 °F /  -13.4 °C 1020.2 in /  34544 hPa Calm     72 % 0.0 in /  0 mm 37.0 W/m2 BKN
16:42 12.8 °F /  -10.7 °C 8.3 °F /  -13.2 °C 1020.5 in /  34554.1 hPa Calm     74 % 0.0 in /  0 mm 39.0 W/m2 BKN
16:47 12.8 °F /  -10.7 °C 8.7 °F /  -12.9 °C 1020.5 in /  34554.1 hPa Calm     76 % 0.0 in /  0 mm 33.0 W/m2 BKN
16:52 12.2 °F /  -11 °C 8.3 °F /  -13.2 °C 1020.5 in /  34554.1 hPa Calm     77 % 0.0 in /  0 mm 65.0 W/m2 BKN
16:57 12.2 °F /  -11 °C 8.5 °F /  -13.1 °C 1020.5 in /  34554.1 hPa Calm     78 % 0.3 in /  7.62 mm 56.0 W/m2 RA
17:02 12.2 °F /  -11 °C 8.7 °F /  -12.9 °C 1020.5 in /  34554.1 hPa Calm     79 % 0.3 in /  7.62 mm 62.0 W/m2 SCT
17:03 12.2 °F /  -11 °C 8.9 °F /  -12.8 °C 1020.5 in /  34554.1 hPa Calm     80 % 0.3 in /  7.62 mm 65.0 W/m2 SCT
17:08 12.2 °F /  -11 °C 8.9 °F /  -12.8 °C 1020.2 in /  34544 hPa Calm     80 % 0.3 in /  7.62 mm 62.0 W/m2 SCT
17:13 12.2 °F /  -11 °C 8.9 °F /  -12.8 °C 1020.2 in /  34544 hPa Calm     80 % 0.3 in /  7.62 mm 39.0 W/m2 SCT
17:18 11.7 °F /  -11.3 °C 8.5 °F /  -13.1 °C 1020.2 in /  34544 hPa Calm     81 % 0.3 in /  7.62 mm 35.0 W/m2 SCT
17:23 11.7 °F /  -11.3 °C 8.7 °F /  -12.9 °C 1020.2 in /  34544 hPa Calm     82 % 0.3 in /  7.62 mm 33.0 W/m2 BKN
17:28 11.7 °F /  -11.3 °C 8.5 °F /  -13.1 °C 1020.2 in /  34544 hPa Calm     81 % 0.3 in /  7.62 mm 32.0 W/m2 BKN
17:33 11.7 °F /  -11.3 °C 8.5 °F /  -13.1 °C 1020.2 in /  34544 hPa Calm     81 % 0.3 in /  7.62 mm 30.0 W/m2 BKN
17:38 11.7 °F /  -11.3 °C 8.5 °F /  -13.1 °C 1020.5 in /  34554.1 hPa Calm     81 % 0.3 in /  7.62 mm 30.0 W/m2 BKN
17:43 11.7 °F /  -11.3 °C 8.7 °F /  -12.9 °C 1020.5 in /  34554.1 hPa Calm     82 % 0.3 in /  7.62 mm 28.0 W/m2 BKN
17:48 11.7 °F /  -11.3 °C 8.5 °F /  -13.1 °C 1020.5 in /  34554.1 hPa Calm     81 % 0.3 in /  7.62 mm 23.0 W/m2 BKN
17:53 11.7 °F /  -11.3 °C 8.7 °F /  -12.9 °C 1020.5 in /  34554.1 hPa Calm     82 % 0.0 in /  0 mm 25.0 W/m2 BKN
17:58 11.7 °F /  -11.3 °C 8.5 °F /  -13.1 °C 1020.5 in /  34554.1 hPa Calm     81 % 0.0 in /  0 mm 25.0 W/m2 BKN
18:04 11.7 °F /  -11.3 °C 8.5 °F /  -13.1 °C 1020.5 in /  34554.1 hPa Calm     81 % 0.0 in /  0 mm 21.0 W/m2 BKN
18:09 11.7 °F /  -11.3 °C 8.3 °F /  -13.2 °C 1020.5 in /  34554.1 hPa Calm     80 % 0.0 in /  0 mm 18.0 W/m2 BKN
18:14 11.7 °F /  -11.3 °C 8.2 °F /  -13.2 °C 1020.5 in /  34554.1 hPa NW 5.6 mph /  9 km/h 5.6 mph /  9 km/h 79 % 0.0 in /  0 mm 14.0 W/m2 BKN
18:19 11.7 °F /  -11.3 °C 7.8 °F /  -13.4 °C 1020.5 in /  34554.1 hPa WNW 11.1 mph /  17.9 km/h 11.1 mph /  17.9 km/h 77 % 0.0 in /  0 mm 11.0 W/m2 BKN
18:24 11.7 °F /  -11.3 °C 7.6 °F /  -13.6 °C 1020.5 in /  34554.1 hPa NW 11.1 mph /  17.9 km/h 11.1 mph /  17.9 km/h 76 % 0.0 in /  0 mm 7.0 W/m2 BKN
18:29 11.7 °F /  -11.3 °C 7.6 °F /  -13.6 °C 1020.5 in /  34554.1 hPa NW 8.0 mph /  12.9 km/h 8.0 mph /  12.9 km/h 76 % 0.0 in /  0 mm 0.0 W/m2 OVC
18:34 11.1 °F /  -11.6 °C 6.8 °F /  -14 °C 1020.5 in /  34554.1 hPa NW 13.0 mph /  20.9 km/h 13.0 mph /  20.9 km/h 75 % 0.0 in /  0 mm 0.0 W/m2 OVC
18:39 11.1 °F /  -11.6 °C 6.8 °F /  -14 °C 1020.5 in /  34554.1 hPa Calm     75 % 0.0 in /  0 mm 0.0 W/m2 OVC
18:44 11.1 °F /  -11.6 °C 6.8 °F /  -14 °C 1020.9 in /  34567.7 hPa Calm     75 % 0.0 in /  0 mm 0.0 W/m2 CLR
18:49 11.1 °F /  -11.6 °C 6.8 °F /  -14 °C 1020.9 in /  34567.7 hPa Calm     75 % 0.0 in /  0 mm 0.0 W/m2 CLR
18:54 11.1 °F /  -11.6 °C 6.7 °F /  -14.1 °C 1020.5 in /  34554.1 hPa WNW 16.7 mph /  26.9 km/h 16.7 mph /  26.9 km/h 74 % 0.0 in /  0 mm 0.0 W/m2 CLR
18:59 11.1 °F /  -11.6 °C 6.4 °F /  -14.2 °C 1020.5 in /  34554.1 hPa NW 14.8 mph /  23.8 km/h 14.8 mph /  23.8 km/h 73 % 0.0 in /  0 mm 0.0 W/m2 CLR
19:04 11.1 °F /  -11.6 °C 6.4 °F /  -14.2 °C 1020.5 in /  34554.1 hPa NNW 7.4 mph /  11.9 km/h 7.4 mph /  11.9 km/h 73 % 0.0 in /  0 mm 0.0 W/m2 CLR
19:09 11.1 °F /  -11.6 °C 6.7 °F /  -14.1 °C 1020.5 in /  34554.1 hPa Calm     74 % 0.0 in /  0 mm 0.0 W/m2 CLR
19:14 11.1 °F /  -11.6 °C 6.8 °F /  -14 °C 1020.9 in /  34567.7 hPa Calm     75 % 0.0 in /  0 mm 0.0 W/m2 CLR
19:19 11.1 °F /  -11.6 °C 7.1 °F /  -13.8 °C 1020.9 in /  34567.7 hPa Calm     76 % 0.0 in /  0 mm 0.0 W/m2 CLR
19:24 11.1 °F /  -11.6 °C 7.1 °F /  -13.8 °C 1020.9 in /  34567.7 hPa Calm     76 % 0.0 in /  0 mm 0.0 W/m2 CLR
19:29 10.6 °F /  -11.9 °C 6.5 °F /  -14.2 °C 1020.9 in /  34567.7 hPa Calm     76 % 0.0 in /  0 mm 0.0 W/m2 CLR
19:34 10.6 °F /  -11.9 °C 6.7 °F /  -14.1 °C 1020.9 in /  34567.7 hPa Calm     77 % 0.0 in /  0 mm 0.0 W/m2 CLR
19:39 10.6 °F /  -11.9 °C 6.7 °F /  -14.1 °C 1020.9 in /  34567.7 hPa Calm     77 % 0.0 in /  0 mm 0.0 W/m2 CLR
19:44 10.0 °F /  -12.2 °C 6.2 °F /  -14.3 °C 1020.9 in /  34567.7 hPa Calm     77 % 0.0 in /  0 mm 0.0 W/m2 CLR
19:49 10.0 °F /  -12.2 °C 6.3 °F /  -14.3 °C 1020.9 in /  34567.7 hPa Calm     78 % 0.0 in /  0 mm 0.0 W/m2 CLR
19:54 9.4 °F /  -12.6 °C 5.8 °F /  -14.6 °C 1021.2 in /  34577.8 hPa Calm     78 % 0.0 in /  0 mm 0.0 W/m2 CLR
19:59 9.4 °F /  -12.6 °C 5.8 °F /  -14.6 °C 1021.2 in /  34577.8 hPa Calm     78 % 0.0 in /  0 mm 0.0 W/m2 CLR
20:04 9.4 °F /  -12.6 °C 5.8 °F /  -14.6 °C 1021.2 in /  34577.8 hPa Calm     78 % 0.0 in /  0 mm 0.0 W/m2 CLR
20:09 9.4 °F /  -12.6 °C 6.0 °F /  -14.4 °C 1021.2 in /  34577.8 hPa Calm     79 % 0.0 in /  0 mm 0.0 W/m2 CLR
20:14 9.4 °F /  -12.6 °C 6.0 °F /  -14.4 °C 1021.2 in /  34577.8 hPa Calm     79 % 0.0 in /  0 mm 0.0 W/m2 CLR
20:19 9.4 °F /  -12.6 °C 6.0 °F /  -14.4 °C 1021.2 in /  34577.8 hPa Calm     79 % 0.0 in /  0 mm 0.0 W/m2 CLR
20:24 9.4 °F /  -12.6 °C 6.0 °F /  -14.4 °C 1021.2 in /  34577.8 hPa Calm     79 % 0.0 in /  0 mm 0.0 W/m2 CLR
20:29 9.4 °F /  -12.6 °C 6.0 °F /  -14.4 °C 1021.2 in /  34577.8 hPa Calm     79 % 0.0 in /  0 mm 0.0 W/m2 CLR
20:34 9.4 °F /  -12.6 °C 6.0 °F /  -14.4 °C 1021.2 in /  34577.8 hPa Calm     79 % 0.0 in /  0 mm 0.0 W/m2 CLR
20:39 9.4 °F /  -12.6 °C 5.8 °F /  -14.6 °C 1021.6 in /  34591.4 hPa Calm     78 % 0.0 in /  0 mm 0.0 W/m2 CLR
20:44 9.4 °F /  -12.6 °C 5.8 °F /  -14.6 °C 1021.6 in /  34591.4 hPa Calm     78 % 0.0 in /  0 mm 0.0 W/m2 CLR
20:49 9.4 °F /  -12.6 °C 5.8 °F /  -14.6 °C 1021.6 in /  34591.4 hPa Calm     78 % 0.0 in /  0 mm 0.0 W/m2 CLR
20:54 9.4 °F /  -12.6 °C 5.8 °F /  -14.6 °C 1021.6 in /  34591.4 hPa Calm     78 % 0.0 in /  0 mm 0.0 W/m2 CLR
20:59 9.4 °F /  -12.6 °C 6.0 °F /  -14.4 °C 1021.6 in /  34591.4 hPa Calm     79 % 0.0 in /  0 mm 0.0 W/m2 CLR
21:04 9.4 °F /  -12.6 °C 6.0 °F /  -14.4 °C 1021.6 in /  34591.4 hPa Calm     79 % 0.0 in /  0 mm 0.0 W/m2 CLR
21:09 9.4 °F /  -12.6 °C 6.0 °F /  -14.4 °C 1021.6 in /  34591.4 hPa Calm     79 % 0.0 in /  0 mm 0.0 W/m2 CLR
21:14 9.4 °F /  -12.6 °C 5.8 °F /  -14.6 °C 1021.6 in /  34591.4 hPa Calm     78 % 0.0 in /  0 mm 0.0 W/m2 CLR
21:19 9.4 °F /  -12.6 °C 5.8 °F /  -14.6 °C 1021.6 in /  34591.4 hPa Calm     78 % 0.0 in /  0 mm 0.0 W/m2 CLR
21:24 9.4 °F /  -12.6 °C 5.6 °F /  -14.7 °C 1021.6 in /  34591.4 hPa Calm     77 % 0.0 in /  0 mm 0.0 W/m2 CLR
21:29 8.9 °F /  -12.8 °C 5.1 °F /  -14.9 °C 1021.6 in /  34591.4 hPa WNW 5.6 mph /  9 km/h 5.6 mph /  9 km/h 77 % 0.0 in /  0 mm 0.0 W/m2 CLR
21:34 8.9 °F /  -12.8 °C 4.7 °F /  -15.2 °C 1021.6 in /  34591.4 hPa WNW 3.2 mph /  5.1 km/h   75 % 0.0 in /  0 mm 0.0 W/m2 CLR
21:39 8.9 °F /  -12.8 °C 4.5 °F /  -15.3 °C 1021.6 in /  34591.4 hPa WNW 1.6 mph /  2.6 km/h 1.6 mph /  2.6 km/h 74 % 0.0 in /  0 mm 0.0 W/m2 CLR
21:44 8.9 °F /  -12.8 °C 4.5 °F /  -15.3 °C 1021.6 in /  34591.4 hPa WNW 1.9 mph /  3.1 km/h   74 % 0.0 in /  0 mm 0.0 W/m2 CLR
21:49 8.9 °F /  -12.8 °C 4.3 °F /  -15.4 °C 1021.6 in /  34591.4 hPa WNW 11.3 mph /  18.2 km/h 11.3 mph /  18.2 km/h 73 % 0.0 in /  0 mm 0.0 W/m2 CLR
21:54 8.9 °F /  -12.8 °C 4.1 °F /  -15.5 °C 1021.6 in /  34591.4 hPa WNW 4.8 mph /  7.7 km/h 4.8 mph /  7.7 km/h 72 % 0.0 in /  0 mm 0.0 W/m2 CLR
21:59 8.9 °F /  -12.8 °C 4.1 °F /  -15.5 °C 1021.6 in /  34591.4 hPa WNW 11.1 mph /  17.9 km/h 11.1 mph /  17.9 km/h 72 % 0.0 in /  0 mm 0.0 W/m2 CLR
22:04 8.9 °F /  -12.8 °C 4.1 °F /  -15.5 °C 1021.6 in /  34591.4 hPa NW 1.9 mph /  3.1 km/h 1.9 mph /  3.1 km/h 72 % 0.0 in /  0 mm 0.0 W/m2 CLR
22:09 8.9 °F /  -12.8 °C 4.1 °F /  -15.5 °C 1021.6 in /  34591.4 hPa NW 5.6 mph /  9 km/h 5.6 mph /  9 km/h 72 % 0.0 in /  0 mm 0.0 W/m2 CLR
22:14 9.4 °F /  -12.6 °C 4.7 °F /  -15.2 °C 1021.6 in /  34591.4 hPa NW 5.6 mph /  9 km/h 5.6 mph /  9 km/h 72 % 0.0 in /  0 mm 0.0 W/m2 CLR
22:19 8.9 °F /  -12.8 °C 4.1 °F /  -15.5 °C 1021.6 in /  34591.4 hPa NW 6.4 mph /  10.3 km/h 6.4 mph /  10.3 km/h 72 % 0.0 in /  0 mm 0.0 W/m2 CLR
22:24 8.9 °F /  -12.8 °C 4.1 °F /  -15.5 °C 1021.6 in /  34591.4 hPa NW 3.7 mph /  6 km/h 3.7 mph /  6 km/h 72 % 0.0 in /  0 mm 0.0 W/m2 CLR
22:29 8.9 °F /  -12.8 °C 4.1 °F /  -15.5 °C 1021.6 in /  34591.4 hPa Calm     72 % 0.0 in /  0 mm 0.0 W/m2 CLR
22:34 8.9 °F /  -12.8 °C 4.1 °F /  -15.5 °C 1021.6 in /  34591.4 hPa WNW 5.6 mph /  9 km/h 5.6 mph /  9 km/h 72 % 0.0 in /  0 mm 0.0 W/m2 CLR
22:39 8.9 °F /  -12.8 °C 4.1 °F /  -15.5 °C 1021.6 in /  34591.4 hPa WNW 3.7 mph /  6 km/h 3.7 mph /  6 km/h 72 % 0.0 in /  0 mm 0.0 W/m2 CLR
22:44 8.9 °F /  -12.8 °C 4.1 °F /  -15.5 °C 1021.6 in /  34591.4 hPa NW 1.9 mph /  3.1 km/h   72 % 0.0 in /  0 mm 0.0 W/m2 CLR
22:49 8.9 °F /  -12.8 °C 4.3 °F /  -15.4 °C 1021.6 in /  34591.4 hPa WNW 3.2 mph /  5.1 km/h 3.2 mph /  5.1 km/h 73 % 0.0 in /  0 mm 0.0 W/m2 CLR
22:54 8.3 °F /  -13.2 °C 3.8 °F /  -15.7 °C 1021.6 in /  34591.4 hPa WNW 5.6 mph /  9 km/h 5.6 mph /  9 km/h 73 % 0.0 in /  0 mm 0.0 W/m2 CLR
22:59 8.3 °F /  -13.2 °C 3.8 °F /  -15.7 °C 1021.6 in /  34591.4 hPa WNW 5.6 mph /  9 km/h 5.6 mph /  9 km/h 73 % 0.0 in /  0 mm 0.0 W/m2 CLR
23:04 8.3 °F /  -13.2 °C 3.8 °F /  -15.7 °C 1021.6 in /  34591.4 hPa NW 7.4 mph /  11.9 km/h 7.4 mph /  11.9 km/h 73 % 0.0 in /  0 mm 0.0 W/m2 CLR
23:05 8.3 °F /  -13.2 °C 3.8 °F /  -15.7 °C 1021.6 in /  34591.4 hPa NW 7.4 mph /  11.9 km/h 7.4 mph /  11.9 km/h 73 % 0.0 in /  0 mm 0.0 W/m2 CLR
23:10 7.8 °F /  -13.4 °C 3.4 °F /  -15.9 °C 1021.6 in /  34591.4 hPa NW 5.6 mph /  9 km/h 5.6 mph /  9 km/h 74 % 0.0 in /  0 mm 0.0 W/m2 CLR
23:15 7.8 °F /  -13.4 °C 3.4 °F /  -15.9 °C 1021.6 in /  34591.4 hPa NW 5.6 mph /  9 km/h 5.6 mph /  9 km/h 74 % 0.0 in /  0 mm 0.0 W/m2 CLR
23:20 7.2 °F /  -13.8 °C 2.9 °F /  -16.2 °C 1021.6 in /  34591.4 hPa NW 5.6 mph /  9 km/h 5.6 mph /  9 km/h 74 % 0.0 in /  0 mm 0.0 W/m2 CLR
23:25 7.2 °F /  -13.8 °C 3.1 °F /  -16.1 °C 1021.6 in /  34591.4 hPa NW 7.4 mph /  11.9 km/h 7.4 mph /  11.9 km/h 75 % 0.0 in /  0 mm 0.0 W/m2 CLR
23:30 7.2 °F /  -13.8 °C 3.1 °F /  -16.1 °C 1021.6 in /  34591.4 hPa NW 5.6 mph /  9 km/h 5.8 mph /  9.3 km/h 75 % 0.0 in /  0 mm 0.0 W/m2 CLR
23:35 7.2 °F /  -13.8 °C 3.1 °F /  -16.1 °C 1021.6 in /  34591.4 hPa NW 4.8 mph /  7.7 km/h 4.8 mph /  7.7 km/h 75 % 0.0 in /  0 mm 0.0 W/m2 CLR
23:40 7.2 °F /  -13.8 °C 3.3 °F /  -15.9 °C 1021.6 in /  34591.4 hPa NW 5.6 mph /  9 km/h 5.6 mph /  9 km/h 76 % 0.0 in /  0 mm 0.0 W/m2 CLR
23:45 7.2 °F /  -13.8 °C 3.1 °F /  -16.1 °C 1021.6 in /  34591.4 hPa NW 5.6 mph /  9 km/h 5.6 mph /  9 km/h 75 % 0.0 in /  0 mm 0.0 W/m2 CLR
23:50 6.7 °F /  -14.1 °C 2.7 °F /  -16.3 °C 1021.6 in /  34591.4 hPa WNW 5.6 mph /  9 km/h 5.6 mph /  9 km/h 76 % 0.0 in /  0 mm 0.0 W/m2 CLR
23:55 6.7 °F /  -14.1 °C 2.6 °F /  -16.3 °C 1021.6 in /  34591.4 hPa WNW 5.6 mph /  9 km/h 5.6 mph /  9 km/h 75 % 0.0 in /  0 mm 0.0 W/m2 CLR
Lo Temps de Massalio
Compliments of Weather Underground - 1.25 mb